sensor_id;sensor_type;location;lat;lon;timestamp;P1;durP1;ratioP1;P2;durP2;ratioP2
37843;SDS011;63793;57.632;18.292;2022-12-29T00:00:04;12.73;;;7.95;;
37843;SDS011;63793;57.632;18.292;2022-12-29T00:02:41;16.15;;;7.15;;
37843;SDS011;63793;57.632;18.292;2022-12-29T00:05:08;16.38;;;8.38;;
37843;SDS011;63793;57.632;18.292;2022-12-29T00:07:35;12.55;;;8.48;;
37843;SDS011;63793;57.632;18.292;2022-12-29T00:10:02;15.63;;;7.80;;
37843;SDS011;63793;57.632;18.292;2022-12-29T00:12:29;13.02;;;8.27;;
37843;SDS011;63793;57.632;18.292;2022-12-29T00:15:16;12.55;;;8.30;;
37843;SDS011;63793;57.632;18.292;2022-12-29T00:18:02;10.40;;;8.30;;
37843;SDS011;63793;57.632;18.292;2022-12-29T00:20:29;12.10;;;8.07;;
37843;SDS011;63793;57.632;18.292;2022-12-29T00:23:14;15.80;;;8.50;;
37843;SDS011;63793;57.632;18.292;2022-12-29T00:26:02;23.52;;;9.05;;
37843;SDS011;63793;57.632;18.292;2022-12-29T00:28:50;13.70;;;8.93;;
37843;SDS011;63793;57.632;18.292;2022-12-29T00:31:35;14.85;;;8.95;;
37843;SDS011;63793;57.632;18.292;2022-12-29T00:34:20;16.90;;;9.10;;
37843;SDS011;63793;57.632;18.292;2022-12-29T00:37:06;10.80;;;8.10;;
37843;SDS011;63793;57.632;18.292;2022-12-29T00:39:33;12.45;;;7.82;;
37843;SDS011;63793;57.632;18.292;2022-12-29T00:42:18;10.40;;;8.25;;
37843;SDS011;63793;57.632;18.292;2022-12-29T00:45:03;11.27;;;8.23;;
37843;SDS011;63793;57.632;18.292;2022-12-29T00:47:31;14.85;;;6.75;;
37843;SDS011;63793;57.632;18.292;2022-12-29T00:49:57;9.65;;;6.97;;
37843;SDS011;63793;57.632;18.292;2022-12-29T00:52:26;11.48;;;7.25;;
37843;SDS011;63793;57.632;18.292;2022-12-29T00:54:52;11.75;;;7.78;;
37843;SDS011;63793;57.632;18.292;2022-12-29T00:57:19;9.38;;;8.10;;
37843;SDS011;63793;57.632;18.292;2022-12-29T00:59:46;16.80;;;9.48;;
37843;SDS011;63793;57.632;18.292;2022-12-29T01:02:14;18.15;;;7.97;;
37843;SDS011;63793;57.632;18.292;2022-12-29T01:04:42;13.75;;;7.22;;
37843;SDS011;63793;57.632;18.292;2022-12-29T01:07:08;12.45;;;8.68;;
37843;SDS011;63793;57.632;18.292;2022-12-29T01:09:36;9.38;;;6.40;;
37843;SDS011;63793;57.632;18.292;2022-12-29T01:12:21;10.90;;;6.82;;
37843;SDS011;63793;57.632;18.292;2022-12-29T01:15:09;14.30;;;8.05;;
37843;SDS011;63793;57.632;18.292;2022-12-29T01:17:38;8.77;;;6.25;;
37843;SDS011;63793;57.632;18.292;2022-12-29T01:20:05;12.70;;;6.38;;
37843;SDS011;63793;57.632;18.292;2022-12-29T01:22:32;10.10;;;6.80;;
37843;SDS011;63793;57.632;18.292;2022-12-29T01:24:59;8.90;;;5.78;;
37843;SDS011;63793;57.632;18.292;2022-12-29T01:27:26;11.50;;;6.60;;
37843;SDS011;63793;57.632;18.292;2022-12-29T01:29:53;12.82;;;7.80;;
37843;SDS011;63793;57.632;18.292;2022-12-29T01:32:20;12.45;;;7.60;;
37843;SDS011;63793;57.632;18.292;2022-12-29T01:34:47;10.68;;;7.63;;
37843;SDS011;63793;57.632;18.292;2022-12-29T01:37:14;12.95;;;8.10;;
37843;SDS011;63793;57.632;18.292;2022-12-29T01:39:41;11.45;;;7.63;;
37843;SDS011;63793;57.632;18.292;2022-12-29T01:42:15;11.98;;;7.97;;
37843;SDS011;63793;57.632;18.292;2022-12-29T01:44:54;16.23;;;8.52;;
37843;SDS011;63793;57.632;18.292;2022-12-29T01:49:58;17.45;;;8.48;;
37843;SDS011;63793;57.632;18.292;2022-12-29T01:52:29;11.10;;;8.60;;
37843;SDS011;63793;57.632;18.292;2022-12-29T01:55:00;19.33;;;7.93;;
37843;SDS011;63793;57.632;18.292;2022-12-29T01:57:30;11.90;;;7.38;;
37843;SDS011;63793;57.632;18.292;2022-12-29T02:00:03;14.85;;;7.65;;
37843;SDS011;63793;57.632;18.292;2022-12-29T02:02:40;14.15;;;7.85;;
37843;SDS011;63793;57.632;18.292;2022-12-29T02:05:12;9.00;;;7.32;;
37843;SDS011;63793;57.632;18.292;2022-12-29T02:07:45;12.43;;;6.95;;
37843;SDS011;63793;57.632;18.292;2022-12-29T02:10:13;20.10;;;7.40;;
37843;SDS011;63793;57.632;18.292;2022-12-29T02:12:40;12.65;;;7.75;;
37843;SDS011;63793;57.632;18.292;2022-12-29T02:15:07;11.18;;;6.03;;
37843;SDS011;63793;57.632;18.292;2022-12-29T02:29:21;20.20;;;7.05;;
37843;SDS011;63793;57.632;18.292;2022-12-29T02:34:47;16.67;;;6.35;;
37843;SDS011;63793;57.632;18.292;2022-12-29T02:37:47;12.15;;;7.25;;
37843;SDS011;63793;57.632;18.292;2022-12-29T02:42:59;19.98;;;7.63;;
37843;SDS011;63793;57.632;18.292;2022-12-29T02:45:46;15.15;;;8.02;;
37843;SDS011;63793;57.632;18.292;2022-12-29T02:53:36;21.15;;;9.40;;
37843;SDS011;63793;57.632;18.292;2022-12-29T02:56:22;23.90;;;9.55;;
37843;SDS011;63793;57.632;18.292;2022-12-29T02:58:50;19.38;;;9.88;;
37843;SDS011;63793;57.632;18.292;2022-12-29T03:01:23;14.63;;;8.70;;
37843;SDS011;63793;57.632;18.292;2022-12-29T03:06:49;26.05;;;10.60;;
37843;SDS011;63793;57.632;18.292;2022-12-29T03:09:42;19.27;;;8.73;;
37843;SDS011;63793;57.632;18.292;2022-12-29T03:15:40;18.65;;;9.68;;
37843;SDS011;63793;57.632;18.292;2022-12-29T03:18:34;18.63;;;8.95;;
37843;SDS011;63793;57.632;18.292;2022-12-29T03:21:09;15.65;;;9.00;;
37843;SDS011;63793;57.632;18.292;2022-12-29T03:23:41;18.38;;;9.65;;
37843;SDS011;63793;57.632;18.292;2022-12-29T03:26:12;26.08;;;10.27;;
37843;SDS011;63793;57.632;18.292;2022-12-29T03:28:51;15.73;;;9.63;;
37843;SDS011;63793;57.632;18.292;2022-12-29T03:31:24;26.10;;;10.98;;
37843;SDS011;63793;57.632;18.292;2022-12-29T03:33:52;15.52;;;8.88;;
37843;SDS011;63793;57.632;18.292;2022-12-29T03:36:38;18.45;;;8.98;;
37843;SDS011;63793;57.632;18.292;2022-12-29T03:39:11;21.80;;;10.23;;
37843;SDS011;63793;57.632;18.292;2022-12-29T03:41:40;19.02;;;10.02;;
37843;SDS011;63793;57.632;18.292;2022-12-29T03:44:11;19.50;;;10.40;;
37843;SDS011;63793;57.632;18.292;2022-12-29T03:46:39;17.55;;;10.00;;
37843;SDS011;63793;57.632;18.292;2022-12-29T03:49:06;20.95;;;10.25;;
37843;SDS011;63793;57.632;18.292;2022-12-29T03:51:34;24.70;;;11.55;;
37843;SDS011;63793;57.632;18.292;2022-12-29T03:54:03;22.52;;;9.95;;
37843;SDS011;63793;57.632;18.292;2022-12-29T03:56:31;16.75;;;10.25;;
37843;SDS011;63793;57.632;18.292;2022-12-29T03:58:58;16.25;;;8.88;;
37843;SDS011;63793;57.632;18.292;2022-12-29T04:01:36;16.75;;;10.57;;
37843;SDS011;63793;57.632;18.292;2022-12-29T04:04:03;13.85;;;9.20;;
37843;SDS011;63793;57.632;18.292;2022-12-29T04:06:30;15.45;;;9.00;;
37843;SDS011;63793;57.632;18.292;2022-12-29T04:09:04;22.25;;;11.13;;
37843;SDS011;63793;57.632;18.292;2022-12-29T04:11:36;17.98;;;11.13;;
37843;SDS011;63793;57.632;18.292;2022-12-29T04:14:03;19.48;;;10.82;;
37843;SDS011;63793;57.632;18.292;2022-12-29T04:16:31;18.40;;;8.75;;
37843;SDS011;63793;57.632;18.292;2022-12-29T04:19:03;16.20;;;9.63;;
37843;SDS011;63793;57.632;18.292;2022-12-29T04:21:31;13.80;;;8.63;;
37843;SDS011;63793;57.632;18.292;2022-12-29T04:23:58;12.63;;;7.47;;
37843;SDS011;63793;57.632;18.292;2022-12-29T04:26:26;11.98;;;7.55;;
37843;SDS011;63793;57.632;18.292;2022-12-29T04:29:11;16.45;;;7.45;;
37843;SDS011;63793;57.632;18.292;2022-12-29T04:31:48;12.77;;;7.95;;
37843;SDS011;63793;57.632;18.292;2022-12-29T04:34:16;10.93;;;8.30;;
37843;SDS011;63793;57.632;18.292;2022-12-29T04:36:45;11.73;;;7.00;;
37843;SDS011;63793;57.632;18.292;2022-12-29T04:39:11;10.90;;;6.40;;
37843;SDS011;63793;57.632;18.292;2022-12-29T04:41:40;10.00;;;6.50;;
37843;SDS011;63793;57.632;18.292;2022-12-29T04:44:12;9.85;;;6.60;;
37843;SDS011;63793;57.632;18.292;2022-12-29T04:46:59;10.98;;;6.90;;
37843;SDS011;63793;57.632;18.292;2022-12-29T04:50:01;10.70;;;6.70;;
37843;SDS011;63793;57.632;18.292;2022-12-29T04:52:41;9.93;;;6.28;;
37843;SDS011;63793;57.632;18.292;2022-12-29T04:55:10;9.18;;;6.60;;
37843;SDS011;63793;57.632;18.292;2022-12-29T04:57:37;12.02;;;6.65;;
37843;SDS011;63793;57.632;18.292;2022-12-29T05:00:05;17.98;;;5.88;;
37843;SDS011;63793;57.632;18.292;2022-12-29T05:02:35;9.20;;;5.67;;
37843;SDS011;63793;57.632;18.292;2022-12-29T05:05:03;7.97;;;4.80;;
37843;SDS011;63793;57.632;18.292;2022-12-29T05:07:32;9.05;;;6.63;;
37843;SDS011;63793;57.632;18.292;2022-12-29T05:10:00;10.60;;;4.63;;
37843;SDS011;63793;57.632;18.292;2022-12-29T05:12:33;5.82;;;4.18;;
37843;SDS011;63793;57.632;18.292;2022-12-29T05:15:00;9.55;;;5.45;;
37843;SDS011;63793;57.632;18.292;2022-12-29T05:17:29;8.25;;;4.57;;
37843;SDS011;63793;57.632;18.292;2022-12-29T05:19:56;7.55;;;5.53;;
37843;SDS011;63793;57.632;18.292;2022-12-29T05:22:23;9.93;;;4.80;;
37843;SDS011;63793;57.632;18.292;2022-12-29T05:24:51;8.95;;;5.20;;
37843;SDS011;63793;57.632;18.292;2022-12-29T05:27:18;6.95;;;5.18;;
37843;SDS011;63793;57.632;18.292;2022-12-29T05:29:58;4.93;;;3.97;;
37843;SDS011;63793;57.632;18.292;2022-12-29T05:32:25;6.78;;;4.28;;
37843;SDS011;63793;57.632;18.292;2022-12-29T05:34:53;5.70;;;4.38;;
37843;SDS011;63793;57.632;18.292;2022-12-29T05:37:20;4.93;;;3.90;;
37843;SDS011;63793;57.632;18.292;2022-12-29T05:39:47;5.55;;;4.18;;
37843;SDS011;63793;57.632;18.292;2022-12-29T05:42:14;6.00;;;3.40;;
37843;SDS011;63793;57.632;18.292;2022-12-29T05:45:11;4.75;;;3.20;;
37843;SDS011;63793;57.632;18.292;2022-12-29T05:48:03;5.68;;;4.28;;
37843;SDS011;63793;57.632;18.292;2022-12-29T05:50:41;5.60;;;3.88;;
37843;SDS011;63793;57.632;18.292;2022-12-29T05:53:10;5.60;;;4.00;;
37843;SDS011;63793;57.632;18.292;2022-12-29T05:55:38;6.07;;;3.95;;
37843;SDS011;63793;57.632;18.292;2022-12-29T05:58:12;5.78;;;3.88;;
37843;SDS011;63793;57.632;18.292;2022-12-29T06:00:40;5.82;;;4.18;;
37843;SDS011;63793;57.632;18.292;2022-12-29T06:03:08;7.00;;;3.85;;
37843;SDS011;63793;57.632;18.292;2022-12-29T06:05:35;5.47;;;4.30;;
37843;SDS011;63793;57.632;18.292;2022-12-29T06:08:02;4.80;;;3.63;;
37843;SDS011;63793;57.632;18.292;2022-12-29T06:10:30;4.70;;;3.72;;
37843;SDS011;63793;57.632;18.292;2022-12-29T06:13:01;5.10;;;3.92;;
37843;SDS011;63793;57.632;18.292;2022-12-29T06:15:33;5.38;;;3.85;;
37843;SDS011;63793;57.632;18.292;2022-12-29T06:18:03;7.10;;;3.65;;
37843;SDS011;63793;57.632;18.292;2022-12-29T06:20:30;4.05;;;3.30;;
37843;SDS011;63793;57.632;18.292;2022-12-29T06:22:57;5.10;;;4.60;;
37843;SDS011;63793;57.632;18.292;2022-12-29T06:25:24;4.57;;;3.95;;
37843;SDS011;63793;57.632;18.292;2022-12-29T06:27:51;6.22;;;3.60;;
37843;SDS011;63793;57.632;18.292;2022-12-29T06:30:18;3.50;;;3.13;;
37843;SDS011;63793;57.632;18.292;2022-12-29T06:32:46;3.72;;;3.05;;
37843;SDS011;63793;57.632;18.292;2022-12-29T06:35:13;5.57;;;3.05;;
37843;SDS011;63793;57.632;18.292;2022-12-29T06:37:46;4.75;;;3.03;;
37843;SDS011;63793;57.632;18.292;2022-12-29T06:40:12;3.92;;;2.60;;
37843;SDS011;63793;57.632;18.292;2022-12-29T06:43:09;3.95;;;2.55;;
37843;SDS011;63793;57.632;18.292;2022-12-29T06:45:43;2.67;;;2.33;;
37843;SDS011;63793;57.632;18.292;2022-12-29T06:48:10;2.97;;;2.03;;
37843;SDS011;63793;57.632;18.292;2022-12-29T06:50:37;4.07;;;2.88;;
37843;SDS011;63793;57.632;18.292;2022-12-29T06:53:04;4.47;;;2.78;;
37843;SDS011;63793;57.632;18.292;2022-12-29T06:55:31;3.65;;;2.67;;
37843;SDS011;63793;57.632;18.292;2022-12-29T06:57:58;3.60;;;3.17;;
37843;SDS011;63793;57.632;18.292;2022-12-29T07:00:25;5.70;;;3.50;;
37843;SDS011;63793;57.632;18.292;2022-12-29T07:02:52;7.25;;;4.63;;
37843;SDS011;63793;57.632;18.292;2022-12-29T07:05:21;11.60;;;5.27;;
37843;SDS011;63793;57.632;18.292;2022-12-29T07:07:48;7.70;;;5.00;;
37843;SDS011;63793;57.632;18.292;2022-12-29T07:10:15;9.15;;;6.45;;
37843;SDS011;63793;57.632;18.292;2022-12-29T07:12:42;10.57;;;7.05;;
37843;SDS011;63793;57.632;18.292;2022-12-29T07:15:09;15.07;;;6.72;;
37843;SDS011;63793;57.632;18.292;2022-12-29T07:17:36;6.50;;;5.72;;
37843;SDS011;63793;57.632;18.292;2022-12-29T07:20:03;7.18;;;4.82;;
37843;SDS011;63793;57.632;18.292;2022-12-29T07:22:30;7.10;;;5.15;;
37843;SDS011;63793;57.632;18.292;2022-12-29T07:24:57;6.32;;;4.97;;
37843;SDS011;63793;57.632;18.292;2022-12-29T07:27:24;8.90;;;6.30;;
37843;SDS011;63793;57.632;18.292;2022-12-29T07:29:51;8.75;;;5.18;;
37843;SDS011;63793;57.632;18.292;2022-12-29T07:32:18;7.82;;;6.13;;
37843;SDS011;63793;57.632;18.292;2022-12-29T07:34:45;9.82;;;6.38;;
37843;SDS011;63793;57.632;18.292;2022-12-29T07:37:16;10.63;;;7.97;;
37843;SDS011;63793;57.632;18.292;2022-12-29T07:39:43;15.73;;;7.72;;
37843;SDS011;63793;57.632;18.292;2022-12-29T07:42:10;17.15;;;9.02;;
37843;SDS011;63793;57.632;18.292;2022-12-29T07:44:43;19.60;;;10.00;;
37843;SDS011;63793;57.632;18.292;2022-12-29T07:47:36;19.75;;;9.32;;
37843;SDS011;63793;57.632;18.292;2022-12-29T07:50:03;18.42;;;11.25;;
37843;SDS011;63793;57.632;18.292;2022-12-29T07:52:30;21.70;;;14.63;;
37843;SDS011;63793;57.632;18.292;2022-12-29T07:54:57;17.40;;;13.10;;
37843;SDS011;63793;57.632;18.292;2022-12-29T07:57:24;24.40;;;13.20;;
37843;SDS011;63793;57.632;18.292;2022-12-29T07:59:57;19.83;;;12.52;;
37843;SDS011;63793;57.632;18.292;2022-12-29T08:02:24;15.48;;;12.40;;
37843;SDS011;63793;57.632;18.292;2022-12-29T08:04:53;25.65;;;12.27;;
37843;SDS011;63793;57.632;18.292;2022-12-29T08:07:20;17.92;;;13.40;;
37843;SDS011;63793;57.632;18.292;2022-12-29T08:09:46;14.13;;;10.77;;
37843;SDS011;63793;57.632;18.292;2022-12-29T08:12:13;13.88;;;11.07;;
37843;SDS011;63793;57.632;18.292;2022-12-29T08:14:40;13.15;;;9.90;;
37843;SDS011;63793;57.632;18.292;2022-12-29T08:17:07;19.10;;;11.77;;
37843;SDS011;63793;57.632;18.292;2022-12-29T08:19:34;21.05;;;12.80;;
37843;SDS011;63793;57.632;18.292;2022-12-29T08:22:01;19.27;;;12.65;;
37843;SDS011;63793;57.632;18.292;2022-12-29T08:24:28;15.98;;;11.43;;
37843;SDS011;63793;57.632;18.292;2022-12-29T08:26:55;17.77;;;10.57;;
37843;SDS011;63793;57.632;18.292;2022-12-29T08:29:21;18.60;;;11.38;;
37843;SDS011;63793;57.632;18.292;2022-12-29T08:31:49;12.68;;;11.00;;
37843;SDS011;63793;57.632;18.292;2022-12-29T08:34:15;13.27;;;10.68;;
37843;SDS011;63793;57.632;18.292;2022-12-29T08:36:42;13.60;;;10.30;;
37843;SDS011;63793;57.632;18.292;2022-12-29T08:39:09;11.93;;;9.73;;
37843;SDS011;63793;57.632;18.292;2022-12-29T08:41:36;15.02;;;11.02;;
37843;SDS011;63793;57.632;18.292;2022-12-29T08:44:03;13.93;;;9.27;;
37843;SDS011;63793;57.632;18.292;2022-12-29T08:46:30;9.07;;;8.10;;
37843;SDS011;63793;57.632;18.292;2022-12-29T08:48:57;8.27;;;7.45;;
37843;SDS011;63793;57.632;18.292;2022-12-29T08:51:24;9.57;;;8.68;;
37843;SDS011;63793;57.632;18.292;2022-12-29T08:53:51;12.57;;;8.55;;
37843;SDS011;63793;57.632;18.292;2022-12-29T08:56:19;9.43;;;7.63;;
37843;SDS011;63793;57.632;18.292;2022-12-29T08:58:50;7.85;;;6.68;;
37843;SDS011;63793;57.632;18.292;2022-12-29T09:01:18;11.05;;;7.72;;
37843;SDS011;63793;57.632;18.292;2022-12-29T09:03:46;10.60;;;7.88;;
37843;SDS011;63793;57.632;18.292;2022-12-29T09:06:34;12.55;;;8.02;;
37843;SDS011;63793;57.632;18.292;2022-12-29T09:09:06;12.43;;;9.68;;
37843;SDS011;63793;57.632;18.292;2022-12-29T09:11:33;10.95;;;8.13;;
37843;SDS011;63793;57.632;18.292;2022-12-29T09:14:00;8.73;;;7.25;;
37843;SDS011;63793;57.632;18.292;2022-12-29T09:16:26;8.52;;;6.63;;
37843;SDS011;63793;57.632;18.292;2022-12-29T09:18:54;8.38;;;7.50;;
37843;SDS011;63793;57.632;18.292;2022-12-29T09:21:20;8.18;;;7.00;;
37843;SDS011;63793;57.632;18.292;2022-12-29T09:23:48;7.97;;;6.50;;
37843;SDS011;63793;57.632;18.292;2022-12-29T09:26:15;9.52;;;7.07;;
37843;SDS011;63793;57.632;18.292;2022-12-29T09:28:42;6.72;;;6.03;;
37843;SDS011;63793;57.632;18.292;2022-12-29T09:31:10;6.43;;;5.82;;
37843;SDS011;63793;57.632;18.292;2022-12-29T09:33:38;7.97;;;6.50;;
37843;SDS011;63793;57.632;18.292;2022-12-29T09:36:04;8.65;;;7.10;;
37843;SDS011;63793;57.632;18.292;2022-12-29T09:38:32;8.90;;;6.97;;
37843;SDS011;63793;57.632;18.292;2022-12-29T09:41:01;8.63;;;6.47;;
37843;SDS011;63793;57.632;18.292;2022-12-29T09:46:27;8.98;;;6.88;;
37843;SDS011;63793;57.632;18.292;2022-12-29T09:51:34;10.85;;;7.82;;
37843;SDS011;63793;57.632;18.292;2022-12-29T09:56:47;9.68;;;6.80;;
37843;SDS011;63793;57.632;18.292;2022-12-29T09:59:17;9.43;;;6.95;;
37843;SDS011;63793;57.632;18.292;2022-12-29T10:01:58;8.50;;;7.43;;
37843;SDS011;63793;57.632;18.292;2022-12-29T10:04:32;8.70;;;7.78;;
37843;SDS011;63793;57.632;18.292;2022-12-29T10:07:34;11.77;;;8.38;;
37843;SDS011;63793;57.632;18.292;2022-12-29T10:10:20;14.68;;;9.65;;
37843;SDS011;63793;57.632;18.292;2022-12-29T10:24:06;14.75;;;9.77;;
37843;SDS011;63793;57.632;18.292;2022-12-29T10:26:38;12.65;;;10.32;;
37843;SDS011;63793;57.632;18.292;2022-12-29T10:29:30;13.25;;;9.88;;
37843;SDS011;63793;57.632;18.292;2022-12-29T10:32:12;12.77;;;10.02;;
37843;SDS011;63793;57.632;18.292;2022-12-29T10:34:50;12.75;;;9.98;;
37843;SDS011;63793;57.632;18.292;2022-12-29T10:39:59;12.02;;;10.27;;
37843;SDS011;63793;57.632;18.292;2022-12-29T10:45:15;12.52;;;9.45;;
37843;SDS011;63793;57.632;18.292;2022-12-29T10:47:56;11.43;;;7.45;;
37843;SDS011;63793;57.632;18.292;2022-12-29T10:50:29;11.73;;;8.07;;
37843;SDS011;63793;57.632;18.292;2022-12-29T10:53:00;9.65;;;7.47;;
37843;SDS011;63793;57.632;18.292;2022-12-29T10:55:32;8.18;;;7.28;;
37843;SDS011;63793;57.632;18.292;2022-12-29T10:58:04;8.50;;;6.60;;
37843;SDS011;63793;57.632;18.292;2022-12-29T11:08:22;5.45;;;4.88;;
37843;SDS011;63793;57.632;18.292;2022-12-29T11:10:59;5.85;;;5.35;;
37843;SDS011;63793;57.632;18.292;2022-12-29T11:13:49;8.05;;;6.70;;
37843;SDS011;63793;57.632;18.292;2022-12-29T11:16:27;7.70;;;6.03;;
37843;SDS011;63793;57.632;18.292;2022-12-29T11:18:57;6.70;;;6.00;;
37843;SDS011;63793;57.632;18.292;2022-12-29T11:21:25;6.43;;;5.50;;
37843;SDS011;63793;57.632;18.292;2022-12-29T11:23:57;6.57;;;5.45;;
37843;SDS011;63793;57.632;18.292;2022-12-29T11:26:29;5.65;;;4.63;;
37843;SDS011;63793;57.632;18.292;2022-12-29T11:29:08;5.82;;;5.28;;
37843;SDS011;63793;57.632;18.292;2022-12-29T11:31:41;4.55;;;3.65;;
37843;SDS011;63793;57.632;18.292;2022-12-29T11:34:23;5.15;;;4.55;;
37843;SDS011;63793;57.632;18.292;2022-12-29T11:36:54;7.50;;;5.13;;
37843;SDS011;63793;57.632;18.292;2022-12-29T11:39:38;8.63;;;6.38;;
37843;SDS011;63793;57.632;18.292;2022-12-29T11:42:16;6.57;;;5.95;;
37843;SDS011;63793;57.632;18.292;2022-12-29T11:44:45;10.95;;;5.90;;
37843;SDS011;63793;57.632;18.292;2022-12-29T11:47:22;7.28;;;6.07;;
37843;SDS011;63793;57.632;18.292;2022-12-29T11:49:57;9.98;;;8.68;;
37843;SDS011;63793;57.632;18.292;2022-12-29T11:52:28;11.82;;;9.65;;
37843;SDS011;63793;57.632;18.292;2022-12-29T11:54:59;9.50;;;7.90;;
37843;SDS011;63793;57.632;18.292;2022-12-29T11:57:27;7.90;;;6.90;;
37843;SDS011;63793;57.632;18.292;2022-12-29T11:59:55;11.18;;;8.38;;
37843;SDS011;63793;57.632;18.292;2022-12-29T12:03:11;14.35;;;9.00;;
37843;SDS011;63793;57.632;18.292;2022-12-29T12:08:20;11.18;;;6.95;;
37843;SDS011;63793;57.632;18.292;2022-12-29T12:13:40;7.47;;;6.03;;
37843;SDS011;63793;57.632;18.292;2022-12-29T12:16:18;7.10;;;4.97;;
37843;SDS011;63793;57.632;18.292;2022-12-29T12:18:56;5.85;;;5.00;;
37843;SDS011;63793;57.632;18.292;2022-12-29T12:21:58;6.18;;;5.30;;
37843;SDS011;63793;57.632;18.292;2022-12-29T12:24:38;5.13;;;4.07;;
37843;SDS011;63793;57.632;18.292;2022-12-29T12:27:19;4.72;;;4.30;;
37843;SDS011;63793;57.632;18.292;2022-12-29T12:32:39;5.85;;;4.13;;
37843;SDS011;63793;57.632;18.292;2022-12-29T12:35:15;5.68;;;5.00;;
37843;SDS011;63793;57.632;18.292;2022-12-29T12:37:52;8.57;;;5.80;;
37843;SDS011;63793;57.632;18.292;2022-12-29T12:57:40;12.93;;;11.23;;
37843;SDS011;63793;57.632;18.292;2022-12-29T13:00:25;16.60;;;10.05;;
37843;SDS011;63793;57.632;18.292;2022-12-29T13:03:13;17.65;;;10.95;;
37843;SDS011;63793;57.632;18.292;2022-12-29T13:06:01;18.08;;;11.75;;
37843;SDS011;63793;57.632;18.292;2022-12-29T13:08:49;17.52;;;12.48;;
37843;SDS011;63793;57.632;18.292;2022-12-29T13:14:30;17.90;;;10.25;;
37843;SDS011;63793;57.632;18.292;2022-12-29T13:20:29;21.20;;;11.85;;
37843;SDS011;63793;57.632;18.292;2022-12-29T13:31:42;20.05;;;12.35;;
37843;SDS011;63793;57.632;18.292;2022-12-29T13:37:11;16.92;;;11.02;;
37843;SDS011;63793;57.632;18.292;2022-12-29T13:39:43;13.43;;;10.80;;
37843;SDS011;63793;57.632;18.292;2022-12-29T13:42:15;20.20;;;12.50;;
37843;SDS011;63793;57.632;18.292;2022-12-29T13:45:00;16.75;;;11.77;;
37843;SDS011;63793;57.632;18.292;2022-12-29T13:47:36;12.70;;;10.57;;
37843;SDS011;63793;57.632;18.292;2022-12-29T13:50:18;12.80;;;10.35;;
37843;SDS011;63793;57.632;18.292;2022-12-29T13:55:40;15.48;;;9.57;;
37843;SDS011;63793;57.632;18.292;2022-12-29T13:58:31;14.30;;;11.02;;
37843;SDS011;63793;57.632;18.292;2022-12-29T14:01:30;19.63;;;12.48;;
37843;SDS011;63793;57.632;18.292;2022-12-29T14:04:10;13.27;;;9.95;;
37843;SDS011;63793;57.632;18.292;2022-12-29T14:06:47;21.75;;;9.30;;
37843;SDS011;63793;57.632;18.292;2022-12-29T14:09:45;10.00;;;8.82;;
37843;SDS011;63793;57.632;18.292;2022-12-29T14:14:47;12.18;;;9.60;;
37843;SDS011;63793;57.632;18.292;2022-12-29T14:17:16;16.63;;;9.27;;
37843;SDS011;63793;57.632;18.292;2022-12-29T14:19:46;19.23;;;10.55;;
37843;SDS011;63793;57.632;18.292;2022-12-29T14:22:23;17.95;;;8.50;;
37843;SDS011;63793;57.632;18.292;2022-12-29T14:24:58;13.13;;;9.18;;
37843;SDS011;63793;57.632;18.292;2022-12-29T14:29:55;12.25;;;8.82;;
37843;SDS011;63793;57.632;18.292;2022-12-29T14:34:58;11.18;;;9.05;;
37843;SDS011;63793;57.632;18.292;2022-12-29T14:37:28;11.80;;;8.50;;
37843;SDS011;63793;57.632;18.292;2022-12-29T14:42:33;11.57;;;8.75;;
37843;SDS011;63793;57.632;18.292;2022-12-29T14:45:01;13.27;;;9.20;;
37843;SDS011;63793;57.632;18.292;2022-12-29T14:47:37;14.35;;;9.10;;
37843;SDS011;63793;57.632;18.292;2022-12-29T14:50:10;10.50;;;7.78;;
37843;SDS011;63793;57.632;18.292;2022-12-29T14:58:17;13.77;;;7.70;;
37843;SDS011;63793;57.632;18.292;2022-12-29T15:00:47;13.98;;;8.13;;
37843;SDS011;63793;57.632;18.292;2022-12-29T15:05:57;8.80;;;7.90;;
37843;SDS011;63793;57.632;18.292;2022-12-29T15:08:36;18.02;;;7.95;;
37843;SDS011;63793;57.632;18.292;2022-12-29T15:17:20;13.20;;;8.23;;
37843;SDS011;63793;57.632;18.292;2022-12-29T15:19:53;21.20;;;9.70;;
37843;SDS011;63793;57.632;18.292;2022-12-29T15:22:22;15.75;;;9.13;;
37843;SDS011;63793;57.632;18.292;2022-12-29T15:24:50;17.55;;;10.38;;
37843;SDS011;63793;57.632;18.292;2022-12-29T15:27:22;16.23;;;10.35;;
37843;SDS011;63793;57.632;18.292;2022-12-29T15:29:57;23.60;;;10.40;;
37843;SDS011;63793;57.632;18.292;2022-12-29T15:32:28;16.27;;;11.60;;
37843;SDS011;63793;57.632;18.292;2022-12-29T15:35:20;30.90;;;10.50;;
37843;SDS011;63793;57.632;18.292;2022-12-29T15:37:48;17.58;;;11.68;;
37843;SDS011;63793;57.632;18.292;2022-12-29T15:40:21;17.90;;;10.65;;
37843;SDS011;63793;57.632;18.292;2022-12-29T15:43:03;21.50;;;10.23;;
37843;SDS011;63793;57.632;18.292;2022-12-29T15:45:41;20.08;;;11.65;;
37843;SDS011;63793;57.632;18.292;2022-12-29T15:48:18;13.00;;;10.40;;
37843;SDS011;63793;57.632;18.292;2022-12-29T15:50:48;12.82;;;9.70;;
37843;SDS011;63793;57.632;18.292;2022-12-29T15:53:32;21.23;;;9.73;;
37843;SDS011;63793;57.632;18.292;2022-12-29T15:56:06;17.75;;;10.48;;
37843;SDS011;63793;57.632;18.292;2022-12-29T15:58:42;13.95;;;8.63;;
37843;SDS011;63793;57.632;18.292;2022-12-29T16:01:18;20.17;;;11.43;;
37843;SDS011;63793;57.632;18.292;2022-12-29T16:03:57;14.85;;;10.02;;
37843;SDS011;63793;57.632;18.292;2022-12-29T16:07:01;16.05;;;9.13;;
37843;SDS011;63793;57.632;18.292;2022-12-29T16:09:32;12.40;;;7.57;;
37843;SDS011;63793;57.632;18.292;2022-12-29T16:12:05;9.20;;;8.13;;
37843;SDS011;63793;57.632;18.292;2022-12-29T16:17:04;10.93;;;8.30;;
37843;SDS011;63793;57.632;18.292;2022-12-29T16:19:35;13.65;;;8.77;;
37843;SDS011;63793;57.632;18.292;2022-12-29T16:22:11;10.95;;;7.78;;
37843;SDS011;63793;57.632;18.292;2022-12-29T16:24:43;19.15;;;9.25;;
37843;SDS011;63793;57.632;18.292;2022-12-29T16:27:19;17.85;;;9.15;;
37843;SDS011;63793;57.632;18.292;2022-12-29T16:29:49;15.02;;;8.73;;
37843;SDS011;63793;57.632;18.292;2022-12-29T16:32:23;17.65;;;8.10;;
37843;SDS011;63793;57.632;18.292;2022-12-29T16:35:03;12.48;;;8.48;;
37843;SDS011;63793;57.632;18.292;2022-12-29T16:37:38;10.35;;;6.60;;
37843;SDS011;63793;57.632;18.292;2022-12-29T16:42:46;11.35;;;6.97;;
37843;SDS011;63793;57.632;18.292;2022-12-29T16:48:09;8.82;;;6.05;;
37843;SDS011;63793;57.632;18.292;2022-12-29T16:50:41;9.00;;;6.72;;
37843;SDS011;63793;57.632;18.292;2022-12-29T16:53:26;14.48;;;6.78;;
37843;SDS011;63793;57.632;18.292;2022-12-29T16:56:02;10.20;;;7.73;;
37843;SDS011;63793;57.632;18.292;2022-12-29T16:58:35;11.13;;;7.35;;
37843;SDS011;63793;57.632;18.292;2022-12-29T17:01:02;19.15;;;10.57;;
37843;SDS011;63793;57.632;18.292;2022-12-29T17:03:33;9.60;;;7.60;;
37843;SDS011;63793;57.632;18.292;2022-12-29T17:06:04;15.60;;;8.05;;
37843;SDS011;63793;57.632;18.292;2022-12-29T17:08:39;11.55;;;7.25;;
37843;SDS011;63793;57.632;18.292;2022-12-29T17:11:14;18.15;;;9.65;;
37843;SDS011;63793;57.632;18.292;2022-12-29T17:14:17;16.48;;;9.63;;
37843;SDS011;63793;57.632;18.292;2022-12-29T17:17:04;9.90;;;7.00;;
37843;SDS011;63793;57.632;18.292;2022-12-29T17:19:36;12.38;;;7.55;;